Terminal Aerodrome Forecast
Issued by NWS Brownsville, TX

Home | Current Version | Previous Version | Text Only | Print | Product List | Glossary On
Versions: 1 2 3 4 5 6 7 8 9 10 11 12 13 14 15 16 17
082
FTUS44 KBRO 072320
TAFMFE
TAF
KMFE 072320Z 0800/0824 14012KT P6SM SKC
     FM080100 15007KT P6SM SCT250
     FM080600 VRB02KT P6SM SCT250
     FM081300 01017G25KT P6SM SKC=

USA.gov is the U.S. government's official web portal to all federal, state and local government web resources and services.